KMSO/MSO METAR and TAF weather

Enter ICAO airport designator
Station Type Date Time Source
KMSO METAR 2019/06/17 03:53 UTC NOAA

KMSO 170353Z 00000KT 10SM BKN120 20/08 A2998 RMK AO2 SLP135 T02000083


Station Type Date Time Source
KMSO Decoded METAR 2019/06/17 03:53 UTC NOAA

MISSOULA INTERNATIONAL AIRPORT , MT, United States (KMSO) 46-55N 114-06W 975M
Jun 16, 2019 - 11:53 PM EDT / 2019.06.17 0353 UTC
Wind: Calm:0
Visibility: 10 mile(s):0
Sky conditions: mostly cloudy
Temperature: 68.0 F (20.0 C)
Dew Point: 46.9 F (8.3 C)
Relative Humidity: 46%
Pressure (altimeter): 29.98 in. Hg (1015 hPa)
ob: KMSO 170353Z 00000KT 10SM BKN120 20/08 A2998 RMK AO2 SLP135 T02000083
cycle: 4

Station Type Date Time Source
KMSO TAF 2019/06/17 03:58 UTC NOAA

TAF
AMD KMSO 170258Z 1703/1724 02012G24KT P6SM VCSH BKN100
FM170330 06008KT P6SM BKN100
FM171000 11005KT P6SM BKN100
FM171900 30010KT P6SM VCSH BKN100

Example: see airport list